createdAt,value
2022-10-23T00:00:39.322Z,1.52
2022-10-23T00:05:21.458Z,1.63
2022-10-23T00:10:01.990Z,2.38
2022-10-23T00:14:42.180Z,2.13
2022-10-23T00:19:22.446Z,1.55
2022-10-23T00:24:04.102Z,2.53
2022-10-23T00:28:45.118Z,1.98
2022-10-23T00:33:25.550Z,2.05
2022-10-23T00:38:05.937Z,1.88
2022-10-23T00:42:47.641Z,1.73
2022-10-23T00:47:27.807Z,2.05
2022-10-23T00:52:10.174Z,1.45
2022-10-23T00:56:50.799Z,2.13
2022-10-23T01:01:32.592Z,1.90
2022-10-23T01:06:19.953Z,2.33
2022-10-23T01:11:11.469Z,2.28
2022-10-23T01:15:56.337Z,1.85
2022-10-23T01:20:45.731Z,2.00
2022-10-23T01:25:36.913Z,1.83
2022-10-23T01:30:19.252Z,2.03
2022-10-23T01:35:04.392Z,2.22
2022-10-23T01:39:49.851Z,3.17
2022-10-23T01:44:35.021Z,2.13
2022-10-23T01:49:18.087Z,2.25
2022-10-23T01:54:01.434Z,2.25
2022-10-23T01:58:45.295Z,2.10
2022-10-23T02:03:26.782Z,2.42
2022-10-23T02:08:08.528Z,2.17
2022-10-23T02:12:55.953Z,2.08
2022-10-23T02:17:48.596Z,1.88
2022-10-23T02:22:33.129Z,2.25
2022-10-23T02:27:18.346Z,2.38
2022-10-23T02:31:58.873Z,2.40
2022-10-23T02:36:39.060Z,2.00
2022-10-23T02:41:30.302Z,2.28
2022-10-23T02:46:19.898Z,2.15
2022-10-23T02:51:07.336Z,2.67
2022-10-23T02:55:59.033Z,1.98
2022-10-23T03:00:43.842Z,2.10
2022-10-23T03:05:29.486Z,2.05
2022-10-23T03:10:10.736Z,2.80
2022-10-23T03:14:51.061Z,2.55
2022-10-23T03:19:31.056Z,2.55
2022-10-23T03:24:12.476Z,2.30
2022-10-23T03:28:52.881Z,2.40
2022-10-23T03:33:33.446Z,2.08
2022-10-23T03:38:13.565Z,2.47
2022-10-23T03:42:55.093Z,2.80
2022-10-23T03:47:40.822Z,3.35
2022-10-23T03:52:21.244Z,2.50
2022-10-23T03:57:02.151Z,3.10
2022-10-23T04:01:43.603Z,3.22
2022-10-23T04:06:23.707Z,3.08
2022-10-23T04:11:04.337Z,3.50
2022-10-23T04:15:49.671Z,3.30
2022-10-23T04:20:31.542Z,3.42
2022-10-23T04:25:11.641Z,3.08
2022-10-23T04:29:54.344Z,3.15
2022-10-23T04:34:37.302Z,3.35
2022-10-23T04:39:19.286Z,2.90
2022-10-23T04:43:59.804Z,3.40
2022-10-23T04:48:39.927Z,3.67
2022-10-23T04:53:20.179Z,3.25
2022-10-23T04:58:02.002Z,3.38
2022-10-23T05:02:42.630Z,3.10
2022-10-23T05:07:23.707Z,3.40
2022-10-23T05:12:04.019Z,3.03
2022-10-23T05:16:49.894Z,3.78
2022-10-23T05:21:33.769Z,3.20
2022-10-23T05:26:13.761Z,3.22
2022-10-23T05:30:53.915Z,3.00
2022-10-23T05:35:35.759Z,3.20
2022-10-23T05:40:15.986Z,2.90
2022-10-23T05:44:56.343Z,2.92
2022-10-23T05:49:37.086Z,3.30
2022-10-23T05:54:18.722Z,3.17
2022-10-23T05:58:59.073Z,4.47
2022-10-23T06:03:40.398Z,2.67
2022-10-23T06:08:20.767Z,3.53
2022-10-23T06:13:02.287Z,3.20
2022-10-23T06:17:42.900Z,3.50
2022-10-23T06:22:23.287Z,2.90
2022-10-23T06:27:03.623Z,3.42
2022-10-23T06:31:45.563Z,3.55
2022-10-23T06:36:27.029Z,3.25
2022-10-23T06:41:09.012Z,3.35
2022-10-23T06:45:49.468Z,3.03
2022-10-23T06:50:32.080Z,3.85
2022-10-23T06:55:12.442Z,3.92
2022-10-23T06:59:52.699Z,3.55
2022-10-23T07:04:32.760Z,3.67
2022-10-23T07:09:14.465Z,3.90
2022-10-23T07:13:54.970Z,3.70
2022-10-23T07:23:20.241Z,4.28
2022-10-23T07:28:01.915Z,3.42
2022-10-23T07:32:42.324Z,3.40
2022-10-23T07:37:22.572Z,3.38
2022-10-23T07:42:03.013Z,3.15
2022-10-23T07:46:44.478Z,2.25
2022-10-23T07:51:24.949Z,2.38
2022-10-23T07:56:13.280Z,2.08
2022-10-23T08:00:58.619Z,1.88
2022-10-23T08:05:40.363Z,2.05
2022-10-23T08:10:20.886Z,1.50
2022-10-23T08:15:01.653Z,2.17
2022-10-23T08:19:46.417Z,2.15
2022-10-23T08:24:28.141Z,1.70
2022-10-23T08:29:08.280Z,1.90
2022-10-23T08:38:35.804Z,1.70
2022-10-23T08:43:22.992Z,1.65
2022-10-23T08:48:10.406Z,1.70
2022-10-23T08:52:56.005Z,1.63
2022-10-23T08:57:43.752Z,1.65
2022-10-23T09:02:28.095Z,1.13
2022-10-23T09:07:34.094Z,1.75
2022-10-23T09:12:16.890Z,1.67
2022-10-23T09:17:08.914Z,1.20
2022-10-23T09:21:51.415Z,1.42
2022-10-23T09:26:31.921Z,1.23
2022-10-23T09:31:13.542Z,1.38
2022-10-23T09:35:57.398Z,1.40
2022-10-23T09:40:42.283Z,1.23
2022-10-23T09:45:24.522Z,1.40
2022-10-23T09:50:05.140Z,1.20
2022-10-23T09:54:48.172Z,0.77
2022-10-23T09:59:32.112Z,1.38
2022-10-23T10:04:12.092Z,0.82
2022-10-23T10:08:55.599Z,0.90
2022-10-23T10:14:11.943Z,1.40
2022-10-23T10:19:01.772Z,1.23
2022-10-23T10:23:48.573Z,1.17
2022-10-23T10:28:39.590Z,1.30
2022-10-23T10:33:29.042Z,1.50
2022-10-23T10:38:38.506Z,1.13
2022-10-23T10:43:31.194Z,1.40
2022-10-23T10:48:24.988Z,0.90
2022-10-23T10:53:17.513Z,1.30
2022-10-23T10:58:03.756Z,1.25
2022-10-23T11:02:47.069Z,0.95
2022-10-23T11:07:34.677Z,1.05
2022-10-23T11:12:19.016Z,1.33
2022-10-23T11:17:10.186Z,1.30
2022-10-23T11:21:58.577Z,1.58
2022-10-23T11:26:52.954Z,1.23
2022-10-23T11:31:41.216Z,1.42
2022-10-23T11:36:40.484Z,0.95
2022-10-23T11:41:26.705Z,0.95
2022-10-23T11:46:15.303Z,0.90
2022-10-23T11:51:00.349Z,2.08
2022-10-23T11:55:58.646Z,1.20
2022-10-23T12:00:50.578Z,1.00
2022-10-23T12:05:36.385Z,0.80
2022-10-23T12:10:27.514Z,1.23
2022-10-23T12:15:20.730Z,0.70
2022-10-23T12:20:20.403Z,0.80
2022-10-23T12:25:04.473Z,1.10
2022-10-23T12:30:02.696Z,0.90
2022-10-23T12:34:58.284Z,1.00
2022-10-23T12:39:39.281Z,0.70
2022-10-23T12:44:19.978Z,0.90
2022-10-23T12:49:01.956Z,0.88
2022-10-23T12:53:49.242Z,0.77
2022-10-23T12:58:32.159Z,0.85
2022-10-23T13:03:12.870Z,0.80
2022-10-23T13:07:53.170Z,0.77
2022-10-23T13:12:36.413Z,0.90
2022-10-23T13:17:16.709Z,0.88
2022-10-23T13:21:57.015Z,0.70
2022-10-23T13:26:45.052Z,1.00
2022-10-23T13:31:29.594Z,1.10
2022-10-23T13:36:22.697Z,0.85
2022-10-23T13:41:04.797Z,1.35
2022-10-23T13:45:45.099Z,1.15
2022-10-23T13:50:26.701Z,1.35
2022-10-23T13:55:19.442Z,1.10
2022-10-23T13:59:59.623Z,1.42
2022-10-23T14:04:39.589Z,1.10
2022-10-23T14:09:21.111Z,1.27
2022-10-23T14:14:01.620Z,1.15
2022-10-23T14:18:42.335Z,1.08
2022-10-23T14:23:22.453Z,1.20
2022-10-23T14:28:04.395Z,1.00
2022-10-23T14:32:45.500Z,1.10
2022-10-23T14:37:25.829Z,1.17
2022-10-23T14:42:06.090Z,1.17
2022-10-23T14:46:47.852Z,1.30
2022-10-23T14:51:31.018Z,1.20
2022-10-23T14:56:11.640Z,1.17
2022-10-23T15:00:59.168Z,1.40
2022-10-23T15:05:43.818Z,2.03
2022-10-23T15:10:23.975Z,1.25
2022-10-23T15:15:04.628Z,1.42
2022-10-23T15:19:44.606Z,1.30
2022-10-23T15:24:26.724Z,1.20
2022-10-23T15:29:06.781Z,2.00
2022-10-23T15:33:46.743Z,2.47
2022-10-23T15:38:26.756Z,2.30
2022-10-23T15:43:11.339Z,1.65
2022-10-23T15:47:53.644Z,1.67
2022-10-23T15:52:33.493Z,2.00
2022-10-23T15:57:13.616Z,2.25
2022-10-23T16:01:55.608Z,4.25
2022-10-23T16:06:35.923Z,2.15
2022-10-23T16:11:22.405Z,2.33
2022-10-23T16:16:04.397Z,1.67
2022-10-23T16:20:45.843Z,2.50
2022-10-23T16:25:25.921Z,2.35
2022-10-23T16:30:09.357Z,1.83
2022-10-23T16:34:49.351Z,2.95
2022-10-23T16:39:31.568Z,2.03
2022-10-23T16:44:11.857Z,2.83
2022-10-23T16:48:52.931Z,2.13
2022-10-23T16:53:33.296Z,2.40
2022-10-23T16:58:14.814Z,2.30
2022-10-23T17:02:55.039Z,3.22
2022-10-23T17:07:37.194Z,2.45
2022-10-23T17:12:18.028Z,1.83
2022-10-23T17:17:02.005Z,2.05
2022-10-23T17:21:43.241Z,2.42
2022-10-23T17:26:23.722Z,2.50
2022-10-23T17:31:03.768Z,2.40
2022-10-23T17:35:46.377Z,2.35
2022-10-23T17:40:30.860Z,2.50
2022-10-23T17:45:11.756Z,2.47
2022-10-23T17:49:51.937Z,2.35
2022-10-23T17:54:33.588Z,2.22
2022-10-23T17:59:16.044Z,1.67
2022-10-23T18:03:58.125Z,1.63
2022-10-23T18:08:40.138Z,1.60
2022-10-23T18:13:21.726Z,34.00
2022-10-23T18:18:02.078Z,33.58
2022-10-23T18:22:42.776Z,13.20
2022-10-23T18:27:23.015Z,3.17
2022-10-23T18:32:05.194Z,1.13
2022-10-23T18:36:46.050Z,0.93
2022-10-23T18:41:29.101Z,1.10
2022-10-23T18:46:09.186Z,1.35
2022-10-23T18:50:50.792Z,0.70
2022-10-23T18:55:31.016Z,0.90
2022-10-23T19:00:13.218Z,0.80
2022-10-23T19:04:53.738Z,0.68
2022-10-23T19:09:36.337Z,0.88
2022-10-23T19:14:16.650Z,1.02
2022-10-23T19:18:59.584Z,1.08
2022-10-23T19:23:41.925Z,1.13
2022-10-23T19:28:23.576Z,0.90
2022-10-23T19:33:04.034Z,1.35
2022-10-23T19:37:44.806Z,2.00
2022-10-23T19:42:25.129Z,1.20
2022-10-23T19:47:06.658Z,1.00
2022-10-23T19:51:50.977Z,1.50
2022-10-23T19:56:31.607Z,0.85
2022-10-23T20:01:14.856Z,1.23
2022-10-23T20:05:56.445Z,0.75
2022-10-23T20:10:41.769Z,0.93
2022-10-23T20:15:22.361Z,0.50
2022-10-23T20:20:02.766Z,0.65
2022-10-23T20:24:44.296Z,0.88
2022-10-23T20:29:25.868Z,0.93
2022-10-23T20:34:06.928Z,0.77
2022-10-23T20:38:47.048Z,0.73
2022-10-23T20:43:28.714Z,0.70
2022-10-23T20:48:09.004Z,1.35
2022-10-23T20:52:49.444Z,0.95
2022-10-23T20:57:29.413Z,1.30
2022-10-23T21:02:11.844Z,0.90
2022-10-23T21:07:10.705Z,0.95
2022-10-23T21:11:51.764Z,1.00
2022-10-23T21:16:34.781Z,1.15
2022-10-23T21:21:19.319Z,1.15
2022-10-23T21:26:02.246Z,1.20
2022-10-23T21:30:44.807Z,1.10
2022-10-23T21:35:27.787Z,1.15
2022-10-23T21:40:13.720Z,0.73
2022-10-23T21:44:54.113Z,1.20
2022-10-23T21:49:34.049Z,0.80
2022-10-23T21:54:15.104Z,1.13
2022-10-23T21:58:57.235Z,0.93
2022-10-23T22:03:37.269Z,1.30
2022-10-23T22:08:17.212Z,1.15
2022-10-23T22:12:57.284Z,0.80
2022-10-23T22:17:38.608Z,0.75
2022-10-23T22:22:18.909Z,1.00
2022-10-23T22:26:59.195Z,1.02
2022-10-23T22:31:44.167Z,0.77
2022-10-23T22:36:28.854Z,1.05
2022-10-23T22:41:09.775Z,0.77
2022-10-23T22:45:50.027Z,0.95
2022-10-23T22:50:30.191Z,1.70
2022-10-23T22:55:12.043Z,0.75
2022-10-23T22:59:52.022Z,1.02
2022-10-23T23:04:37.808Z,1.30
2022-10-23T23:09:18.859Z,1.27
2022-10-23T23:14:00.963Z,1.35
2022-10-23T23:18:41.627Z,0.90
2022-10-23T23:23:22.089Z,1.05
2022-10-23T23:28:02.484Z,0.95
2022-10-23T23:32:44.380Z,0.90
2022-10-23T23:37:24.790Z,1.05
2022-10-23T23:42:05.111Z,1.02
2022-10-23T23:46:45.612Z,0.70
2022-10-23T23:51:27.417Z,1.02
2022-10-23T23:56:07.722Z,1.20
